createdAt,value
2023-04-11T00:09:35.637Z,4.03
2023-04-11T00:24:38.045Z,8.47
2023-04-11T00:39:40.579Z,6.33
2023-04-11T00:54:43.273Z,7.93
2023-04-11T01:09:47.171Z,9.50
2023-04-11T01:24:49.880Z,9.83
2023-04-11T01:39:52.643Z,12.20
2023-04-11T01:54:55.187Z,10.97
2023-04-11T02:09:58.433Z,11.57
2023-04-11T02:25:01.836Z,10.93
2023-04-11T02:40:08.028Z,12.03
2023-04-11T02:55:13.714Z,12.73
2023-04-11T03:10:16.474Z,10.60
2023-04-11T03:25:19.579Z,11.37
2023-04-11T03:40:27.426Z,12.67
2023-04-11T03:55:41.733Z,13.43
2023-04-11T04:10:47.901Z,12.07
2023-04-11T04:25:51.510Z,11.73
2023-04-11T04:40:58.413Z,9.13
2023-04-11T04:56:02.787Z,11.10
2023-04-11T05:11:08.032Z,14.10
2023-04-11T05:26:12.346Z,14.43
2023-04-11T05:41:16.742Z,11.33
2023-04-11T05:56:19.082Z,8.93
2023-04-11T06:11:22.267Z,13.80
2023-04-11T06:26:24.614Z,11.30
2023-04-11T06:41:26.964Z,8.93
2023-04-11T06:56:29.611Z,9.93
2023-04-11T07:11:32.798Z,7.90
2023-04-11T07:26:38.360Z,12.93
2023-04-11T07:41:41.114Z,8.43
2023-04-11T07:56:43.492Z,6.37
2023-04-11T08:11:45.916Z,8.47
2023-04-11T08:26:48.340Z,9.13
2023-04-11T08:41:51.379Z,6.43
2023-04-11T08:56:53.962Z,6.90
2023-04-11T09:11:56.786Z,7.17
2023-04-11T09:27:12.889Z,6.90
2023-04-11T09:42:25.320Z,5.47
2023-04-11T09:57:30.156Z,4.63
2023-04-11T10:12:33.646Z,6.80
2023-04-11T10:28:02.213Z,3.87
2023-04-11T10:43:20.749Z,6.90
2023-04-11T10:58:43.250Z,4.47
2023-04-11T11:13:47.313Z,5.63
2023-04-11T11:28:51.984Z,4.83
2023-04-11T11:44:25.913Z,3.57
2023-04-11T11:59:28.329Z,6.37
2023-04-11T12:14:31.825Z,7.00
2023-04-11T12:29:34.136Z,4.60
2023-04-11T12:44:36.738Z,2.87
2023-04-11T12:59:39.517Z,4.40
2023-04-11T13:14:42.003Z,4.70
2023-04-11T13:29:45.124Z,6.37
2023-04-11T13:44:48.297Z,6.23
2023-04-11T13:59:50.975Z,5.03
2023-04-11T14:14:53.475Z,6.10
2023-04-11T14:29:56.551Z,7.93
2023-04-11T14:44:58.968Z,3.87
2023-04-11T15:00:01.732Z,4.67
2023-04-11T15:15:05.211Z,5.50
2023-04-11T15:30:08.347Z,7.00
2023-04-11T15:45:11.528Z,3.93
2023-04-11T16:00:14.992Z,8.00
2023-04-11T16:15:18.911Z,4.50
2023-04-11T16:30:21.360Z,5.90
2023-04-11T16:45:23.989Z,5.00
2023-04-11T17:00:29.255Z,4.70
2023-04-11T17:15:31.702Z,6.57
2023-04-11T17:30:34.277Z,4.70
2023-04-11T17:45:37.066Z,5.63
2023-04-11T18:00:54.846Z,4.63
2023-04-11T18:15:58.664Z,3.53
2023-04-11T18:31:01.614Z,3.87
2023-04-11T18:46:04.546Z,4.07
2023-04-11T19:01:15.627Z,3.37
2023-04-11T19:16:19.810Z,4.57
2023-04-11T19:31:26.510Z,4.43
2023-04-11T19:46:29.234Z,6.00
2023-04-11T20:01:32.419Z,5.07
2023-04-11T20:16:36.030Z,3.47
2023-04-11T20:31:38.647Z,3.93
2023-04-11T20:46:42.067Z,4.23
2023-04-11T21:01:45.928Z,4.13
2023-04-11T21:16:49.923Z,5.10
2023-04-11T21:31:52.607Z,5.30
2023-04-11T21:46:55.155Z,4.63
2023-04-11T22:01:58.000Z,3.63
2023-04-11T22:17:00.767Z,7.20
2023-04-11T22:32:04.643Z,3.30
2023-04-11T22:47:11.054Z,5.03
2023-04-11T23:02:13.428Z,4.30
2023-04-11T23:17:15.978Z,6.07
2023-04-11T23:32:19.464Z,3.03
2023-04-11T23:47:22.241Z,3.17
